Time;durP1;ratioP1;P1;durP2;ratioP2;P2;SDS_P1;SDS_P2;PMS_P1;PMS_P2;Temp;Humidity;BMP_temperature;BMP_pressure;BME280_temperature;BME280_humidity;BME280_pressure;Samples;Min_cycle;Max_cycle;Signal;HPM_P1;HPM_P2
2022/07/04 00:05:10;;;;;;;;;;;;;;;21.74;67.31;95790.78;10471001;28;1926;-75
2022/07/04 00:10:14;;;;;;;;;;;;;;;21.30;75.30;95794.13;10469749;28;1828;-74
2022/07/04 00:15:18;;;;;;;;;;;;;;;20.86;79.38;95781.31;10472919;28;1760;-75
2022/07/04 00:20:21;;;;;;;;;;;21.80;99.90;;;20.56;84.56;95780.69;10468855;28;1975;-75
2022/07/04 00:25:25;;;;;;;;;;;21.50;99.90;;;20.39;84.79;95766.03;10471065;28;1840;-75
2022/07/04 00:30:29;;;;;;;;;;;21.30;99.90;;;20.49;85.91;95776.56;10472408;28;1881;-74
2022/07/04 00:35:32;;;;;;;;;;;21.20;99.90;;;20.48;85.52;95787.81;10469067;28;1926;-74
2022/07/04 00:40:41;;;;;;;;;;;21.20;99.90;;;20.45;84.53;95777.56;10474919;28;2168;-73
2022/07/04 00:45:47;;;;;;;;;;;21.20;99.90;;;20.41;83.69;95793.78;10468638;28;1954;-73
2022/07/04 00:50:50;;;;;;;;;;;21.10;99.90;;;20.26;84.75;95748.03;10474283;28;2008;-74
2022/07/04 00:55:52;;;;;;;;;;;21.00;99.90;;;20.10;88.21;95779.78;10473583;28;1913;-74
2022/07/04 01:00:56;;;;;;;;;;;20.90;99.90;;;20.04;91.04;95808.41;10472979;28;1950;-74
2022/07/04 01:05:59;;;;;;;;;;;20.90;99.90;;;19.95;90.70;95812.00;10472567;28;2023;-74
2022/07/04 01:11:01;;;;;;;;;;;20.80;99.90;;;20.10;89.05;95807.88;10471499;28;1911;-74
2022/07/04 01:16:05;;;;;;;;;;;20.70;99.90;;;20.17;87.81;95786.31;10480956;28;1934;-74
2022/07/04 01:21:09;;;;;;;;;;;20.90;99.90;;;20.25;87.05;95803.75;10479115;28;2026;-74
2022/07/04 01:26:14;;;;;;;;;;;21.00;99.90;;;20.18;86.07;95811.69;10483054;28;2012;-73
2022/07/04 01:31:24;;;;;;;;;;;20.80;99.90;;;20.05;87.25;95799.09;10478872;28;1997;-74
2022/07/04 01:36:32;;;;;;;;;;;20.90;99.90;;;20.00;87.24;95797.38;10478929;28;2049;-74
2022/07/04 01:41:55;;;;;;;;;;;20.80;99.90;;;19.94;87.97;95794.03;10479381;28;2026;-74
2022/07/04 01:46:58;;;;;;;;;;;20.80;99.90;;;19.87;87.91;95782.88;10480903;28;1963;-75
2022/07/04 01:52:00;;;;;;;;;;;20.70;99.90;;;19.80;89.04;95770.91;10476385;28;2034;-73
2022/07/04 01:57:03;;;;;;;;;;;20.60;99.90;;;19.86;88.40;95759.44;10478446;28;2110;-74
2022/07/04 02:02:06;;;;;;;;;;;20.60;99.90;;;19.79;89.33;95751.00;10477157;28;1957;-74
2022/07/04 02:07:09;;;;;;;;;;;20.50;99.90;;;19.76;89.29;95745.41;10483964;28;1860;-74
2022/07/04 02:17:32;;;;;;;;;;;20.50;99.90;;;19.73;89.16;95754.25;10479394;28;2013;-74
2022/07/04 02:22:35;;;;;;;;;;;20.40;99.90;;;19.58;91.04;95756.44;10473691;28;1978;-74
2022/07/04 02:27:38;;;;;;;;;;;20.40;99.90;;;19.52;91.57;95765.09;10473343;28;1918;-74
2022/07/04 02:32:41;;;;;;;;;;;20.30;99.90;;;19.46;91.61;95753.59;10476866;28;1888;-74
2022/07/04 02:37:43;;;;;;;;;;;20.30;99.90;;;19.45;91.52;95765.63;10479301;28;1977;-74
2022/07/04 02:42:46;;;;;;;;;;;20.20;99.90;;;19.47;91.24;95773.47;10477502;28;2038;-74
2022/07/04 02:47:49;;;;;;;;;;;20.20;99.90;;;19.41;92.16;95778.34;10470680;28;1995;-73
2022/07/04 02:52:52;;;;;;;;;;;20.20;99.90;;;19.41;92.08;95770.97;10477184;28;1998;-74
2022/07/04 02:57:54;;;;;;;;;;;20.30;99.90;;;19.30;92.87;95783.34;10475891;28;1970;-73
2022/07/04 03:02:58;;;;;;;;;;;20.20;99.90;;;19.29;93.39;95794.59;10476972;28;1888;-73
2022/07/04 03:08:01;;;;;;;;;;;20.00;99.90;;;19.35;93.22;95798.75;10474714;28;1908;-73
2022/07/04 03:13:03;;;;;;;;;;;20.10;99.90;;;19.33;93.13;95784.63;10470342;28;1967;-73
2022/07/04 03:18:09;;;;;;;;;;;20.00;99.90;;;19.27;94.13;95780.47;10477503;28;1997;-73
2022/07/04 03:23:12;;;;;;;;;;;20.10;99.90;;;19.24;95.16;95765.59;10473598;28;2017;-73
2022/07/04 03:28:15;;;;;;;;;;;20.00;99.90;;;19.14;96.12;95772.19;10474354;28;1939;-73
2022/07/04 03:33:18;;;;;;;;;;;19.90;99.90;;;19.14;96.09;95782.31;10479775;28;2026;-74
2022/07/04 03:38:21;;;;;;;;;;;20.00;99.90;;;19.13;96.58;95814.22;10476769;28;1979;-74
2022/07/04 03:43:23;;;;;;;;;;;20.00;99.90;;;19.04;96.95;95821.63;10475985;28;1911;-74
2022/07/04 03:48:26;;;;;;;;;;;19.90;99.90;;;19.12;96.76;95817.25;10475630;28;1911;-74
2022/07/04 03:53:29;;;;;;;;;;;19.90;99.90;;;19.29;95.87;95816.41;10475280;28;1915;-74
2022/07/04 03:58:32;;;;;;;;;;;19.90;99.90;;;19.38;96.23;95819.88;10480309;28;2036;-74
2022/07/04 04:08:56;;;;;;;;;;;20.20;99.90;;;19.62;94.74;95850.09;10473536;28;1923;-74
2022/07/04 04:13:59;;;;;;;;;;;20.20;99.90;;;19.65;94.31;95856.78;10469189;28;1948;-75
2022/07/04 04:19:02;;;;;;;;;;;20.30;99.90;;;19.64;94.38;95860.66;10472633;28;1977;-75
2022/07/04 04:24:07;;;;;;;;;;;20.30;99.90;;;19.54;97.03;95872.72;10470438;28;2044;-73
2022/07/04 04:29:10;;;;;;;;;;;20.30;99.90;;;19.50;100.00;95870.97;10477134;28;2009;-74
2022/07/04 04:34:12;;;;;;;;;;;20.40;99.90;;;19.35;100.00;95880.50;10468995;28;2010;-74
2022/07/04 04:39:15;;;;;;;;;;;20.10;99.90;;;19.29;100.00;95888.06;10468640;28;2030;-74
2022/07/04 04:44:19;;;;;;;;;;;20.10;99.90;;;19.45;100.00;95886.38;10471106;28;2054;-74
2022/07/04 04:49:22;;;;;;;;;;;20.20;99.90;;;19.92;99.45;95878.16;10478458;28;1907;-74
2022/07/04 04:54:25;;;;;;;;;;;20.30;99.90;;;20.05;96.34;95872.78;10474316;28;1916;-75
2022/07/04 04:59:29;;;;;;;;;;;20.50;99.90;;;20.35;99.49;95885.22;10482663;28;1938;-74
2022/07/04 05:04:32;;;;;;;;;;;20.90;99.90;;;20.41;98.42;95894.81;10480553;28;2030;-74
2022/07/04 05:09:35;;;;;;;;;;;20.90;99.90;;;20.45;97.53;95906.69;10478703;28;1966;-74
2022/07/04 05:14:38;;;;;;;;;;;21.00;99.90;;;20.35;100.00;95917.97;10478622;28;2359;-74
2022/07/04 05:19:42;;;;;;;;;;;21.00;99.90;;;20.63;95.71;95934.66;10478764;28;2022;-73
2022/07/04 05:24:45;;;;;;;;;;;21.10;99.90;;;20.61;95.89;95941.59;10479542;28;2013;-74
2022/07/04 05:29:48;;;;;;;;;;;21.20;99.90;;;20.67;94.68;95940.25;10478829;28;2002;-73
2022/07/04 05:34:57;;;;;;;;;;;21.50;99.90;;;20.62;97.62;95940.47;10481929;28;2113;-74
2022/07/04 05:40:01;;;;;;;;;;;21.20;99.90;;;20.49;97.78;95934.94;10482602;28;1987;-74
2022/07/04 05:45:04;;;;;;;;;;;21.20;99.90;;;20.62;99.59;95921.34;10480466;28;1939;-75
2022/07/04 05:50:07;;;;;;;;;;;21.20;99.90;;;20.62;95.70;95929.56;10483671;28;1865;-72
2022/07/04 05:55:10;;;;;;;;;;;21.30;99.90;;;20.69;98.92;95943.47;10476499;28;1943;-71
2022/07/04 06:00:13;;;;;;;;;;;21.30;99.90;;;20.75;97.71;95962.03;10474382;28;1917;-74
2022/07/04 06:05:16;;;;;;;;;;;21.30;99.90;;;20.90;95.65;95952.44;10478232;28;1954;-71
2022/07/04 06:10:20;;;;;;;;;;;21.40;99.90;;;20.96;95.07;95964.75;10469616;28;1934;-73
2022/07/04 06:15:23;;;;;;;;;;;21.50;99.90;;;21.00;94.46;95959.44;10483212;28;1849;-73
2022/07/04 06:20:27;;;;;;;;;;;21.50;99.90;;;20.83;93.88;95962.31;10475330;28;1918;-70
2022/07/04 06:25:31;;;;;;;;;;;21.50;99.90;;;20.91;91.18;95970.41;10482240;28;1812;-71
2022/07/04 06:30:33;;;;;;;;;;;21.40;99.90;;;20.97;90.20;95971.81;10470744;28;1907;-71
2022/07/04 06:35:49;;;;;;;;;;;21.40;99.90;;;20.79;92.02;95964.91;10484353;28;1790;-71
2022/07/04 06:40:52;;;;;;;;;;;21.40;99.90;;;20.81;92.75;95953.66;10481836;28;1917;-72
2022/07/04 06:45:55;;;;;;;;;;;21.40;99.90;;;20.96;92.37;95956.56;10476404;28;1869;-71
2022/07/04 06:50:58;;;;;;;;;;;21.40;99.90;;;20.94;93.74;95972.50;10484676;28;1971;-73
2022/07/04 06:56:01;;;;;;;;;;;21.50;99.90;;;20.89;93.46;95977.38;10480078;28;1813;-71
2022/07/04 07:01:04;;;;;;;;;;;21.60;99.90;;;20.89;93.85;95980.88;10481195;28;1926;-71
2022/07/04 07:06:07;;;;;;;;;;;21.50;99.90;;;21.05;92.35;95987.31;10483994;28;1830;-73
2022/07/04 07:11:13;;;;;;;;;;;21.60;99.90;;;21.18;93.07;95973.72;10481293;28;1934;-72
2022/07/04 07:16:16;;;;;;;;;;;21.70;99.90;;;21.20;92.09;95985.91;10479665;28;1853;-72
2022/07/04 07:21:19;;;;;;;;;;;21.80;99.90;;;20.91;92.69;95986.00;10480653;28;2113;-72
2022/07/04 07:26:22;;;;;;;;;;;21.60;99.90;;;20.82;94.69;95986.09;10482498;28;1796;-73
2022/07/04 07:31:25;;;;;;;;;;;21.40;99.90;;;20.62;96.59;95989.63;10475084;28;1907;-73
2022/07/04 07:36:28;;;;;;;;;;;21.40;99.90;;;20.41;100.00;95984.09;10474200;28;1737;-75
2022/07/04 07:41:31;;;;;;;;;;;21.20;99.90;;;20.37;100.00;95999.56;10473828;28;1937;-73
2022/07/04 07:46:36;;;;;;;;;;;21.10;99.90;;;20.67;100.00;95984.75;10495325;28;1845;-72
2022/07/04 07:51:38;;;;;;;;;;;21.10;99.90;;;21.21;94.90;95964.84;10474200;28;1872;-73
2022/07/04 07:56:43;;;;;;;;;;;21.50;99.90;;;21.97;91.18;95952.59;10473035;28;1863;-72
2022/07/04 08:01:46;;;;;;;;;;;22.00;99.90;;;22.50;88.20;95948.78;10469417;28;2012;-72
2022/07/04 08:06:49;;;;;;;;;;;22.70;99.90;;;22.83;83.64;95939.53;10473017;28;1855;-72
2022/07/04 08:12:12;;;;;;;;;;;23.10;99.90;;;23.27;78.81;95937.66;10481792;28;1966;-71
2022/07/04 08:17:15;;;;;;;;;;;23.50;99.90;;;23.79;74.69;95936.69;10477207;28;1919;-72
2022/07/04 08:22:18;;;;;;;;;;;23.80;99.90;;;24.06;73.77;95925.97;10473718;28;1965;-73
2022/07/04 08:27:22;;;;;;;;;;;24.20;99.90;;;24.37;71.19;95914.94;10478468;28;2020;-71
2022/07/04 08:32:33;;;;;;;;;;;24.60;99.90;;;24.36;70.25;95907.84;10482657;28;2050;-70
2022/07/04 08:37:37;;;;;;;;;;;24.70;99.90;;;24.16;70.12;95912.47;10493995;28;1963;-73
2022/07/04 08:42:40;;;;;;;;;;;24.80;99.90;;;24.10;69.55;95908.41;10483093;28;1773;-72
2022/07/04 08:47:43;;;;;;;;;;;24.70;99.90;;;23.98;71.23;95914.00;10481657;28;1580;-72
2022/07/04 08:52:46;;;;;;;;;;;24.60;99.90;;;24.19;68.31;95906.28;10481687;28;1961;-71
2022/07/04 09:03:09;;;;;;;;;;;25.00;99.90;;;24.87;62.12;95909.69;10474555;28;1880;-71
2022/07/04 09:08:12;;;;;;;;;;;25.30;99.90;;;25.08;60.47;95918.41;10476117;28;1895;-72
2022/07/04 09:13:15;;;;;;;;;;;25.60;99.90;;;25.18;58.87;95895.78;10478998;28;1867;-73
2022/07/04 09:18:18;;;;;;;;;;;25.80;99.90;;;25.24;57.09;95907.28;10476147;28;1906;-72
2022/07/04 09:23:21;;;;;;;;;;;25.90;99.90;;;25.75;54.87;95907.81;10482883;28;1824;-73
2022/07/04 09:28:24;;;;;;;;;;;26.10;99.90;;;26.01;53.75;95920.03;10477594;28;1813;-73
2022/07/04 09:33:27;;;;;;;;;;;26.30;99.90;;;26.21;53.35;95915.22;10477186;28;1889;-71
2022/07/04 09:38:31;;;;;;;;;;;26.80;99.90;;;26.21;52.87;95910.53;10480809;28;1933;-71
2022/07/04 09:43:34;;;;;;;;;;;26.70;99.90;;;26.19;52.33;95920.31;10479593;28;2012;-71
2022/07/04 09:48:37;;;;;;;;;;;26.70;99.90;;;26.49;49.42;95917.63;10480590;28;1742;-72
2022/07/04 09:53:40;;;;;;;;;;;27.00;99.90;;;26.71;50.09;95913.97;10473693;28;1994;-73
2022/07/04 09:58:44;;;;;;;;;;;27.10;99.90;;;26.22;50.66;95914.09;10475198;28;2004;-72
2022/07/04 10:03:47;;;;;;;;;;;26.80;99.90;;;26.56;50.64;95901.19;10476694;28;1775;-74
2022/07/04 10:08:54;;;;;;;;;;;26.80;99.90;;;27.10;49.75;95903.47;10479614;28;1789;-74
2022/07/04 10:13:56;;;;;;;;;;;27.30;99.90;;;27.72;46.93;95895.41;10473657;28;1833;-71
2022/07/04 10:18:59;;;;;;;;;;;28.00;99.90;;;27.60;45.69;95905.94;10477634;28;1915;-73
2022/07/04 10:24:03;;;;;;;;;;;28.10;99.90;;;27.29;48.41;95905.22;10480772;28;1788;-73
2022/07/04 10:29:06;;;;;;;;;;;27.90;99.90;;;27.68;47.41;95908.44;10479691;28;1990;-72
2022/07/04 10:34:09;;;;;;;;;;;28.10;99.90;;;28.09;44.31;95910.31;10476558;28;1890;-73
2022/07/04 10:39:12;;;;;;;;;;;28.30;99.90;;;28.26;43.87;95902.16;10482192;28;1921;-71
2022/07/04 10:44:16;;;;;;;;;;;28.40;99.90;;;28.36;42.98;95902.63;10467945;28;1709;-72
2022/07/04 10:49:18;;;;;;;;;;;28.50;99.90;;;28.39;43.85;95899.91;10487290;28;1804;-74
2022/07/04 10:54:22;;;;;;;;;;;28.80;99.90;;;28.26;43.94;95895.84;10472797;28;1781;-73
2022/07/04 10:59:25;;;;;;;;;;;28.70;99.90;;;28.82;42.31;95889.06;10474563;28;1921;-74
2022/07/04 11:04:28;;;;;;;;;;;29.00;99.90;;;27.93;42.70;95883.78;10481108;28;1811;-73
2022/07/04 11:09:31;;;;;;;;;;;28.90;99.90;;;28.09;43.38;95890.97;10472549;28;1794;-72
2022/07/04 11:14:35;;;;;;;;;;;28.80;99.90;;;28.15;41.94;95892.22;10468208;28;1848;-72
2022/07/04 11:19:38;;;;;;;;;;;28.80;99.90;;;28.25;41.79;95888.72;10474672;28;1931;-75
2022/07/04 11:24:41;;;;;;;;;;;28.70;99.90;;;28.44;42.73;95891.25;10480640;28;2017;-73
2022/07/04 11:29:44;;;;;;;;;;;28.70;99.90;;;28.74;40.43;95877.16;10474337;28;1826;-74
2022/07/04 11:34:48;;;;;;;;;;;29.10;99.90;;;28.37;43.25;95871.81;10473970;28;1850;-74
2022/07/04 11:39:51;;;;;;;;;;;29.10;99.90;;;28.50;41.76;95867.59;10472623;28;1914;-73
2022/07/04 11:45:06;;;;;;;;;;;29.20;99.90;;;28.63;40.12;95864.44;10473937;28;1849;-71
2022/07/04 11:50:10;;;;;;;;;;;29.20;99.90;;;28.50;40.18;95850.16;10465898;28;1912;-70
2022/07/04 11:55:13;;;;;;;;;;;29.30;99.90;;;28.43;42.06;95856.47;10464311;28;1867;-71
2022/07/04 12:00:16;;;;;;;;;;;28.90;99.90;;;28.73;40.58;95856.22;10467739;28;1906;-72
2022/07/04 12:05:19;;;;;;;;;;;29.20;99.90;;;28.15;42.69;95846.00;10467320;28;2197;-72
2022/07/04 12:10:22;;;;;;;;;;;28.70;99.90;;;28.06;43.18;95850.28;10470210;28;1839;-73
2022/07/04 12:15:25;;;;;;;;;;;28.90;99.90;;;27.46;45.27;95849.41;10472339;28;2381;-72
2022/07/04 12:20:29;;;;;;;;;;;28.60;99.90;;;28.06;43.34;95837.28;10465611;28;1914;-72
2022/07/04 12:25:34;;;;;;;;;;;28.40;99.90;;;28.11;43.29;95834.13;10480837;28;1922;-71
2022/07/04 12:30:37;;;;;;;;;;;28.50;99.90;;;28.99;43.15;95824.69;10468218;28;1888;-71
2022/07/04 12:35:40;;;;;;;;;;;29.10;99.90;;;29.04;41.27;95812.47;10472941;28;1804;-72
2022/07/04 12:40:43;;;;;;;;;;;29.50;99.90;;;28.84;41.59;95814.75;10468155;28;1910;-75
2022/07/04 12:45:46;;;;;;;;;;;29.70;99.90;;;28.23;43.00;95791.56;10465526;28;1728;-73
2022/07/04 12:50:49;;;;;;;;;;;29.20;99.90;;;28.33;43.22;95790.09;10472480;28;2811;-73
2022/07/04 12:55:52;;;;;;;;;;;29.00;99.90;;;28.33;42.94;95804.69;10472832;28;1817;-74
2022/07/04 13:00:55;;;;;;;;;;;28.90;99.90;;;27.27;45.23;95786.16;10466049;28;1906;-72
2022/07/04 13:05:58;;;;;;;;;;;28.30;99.90;;;28.23;44.75;95786.03;10470742;28;1860;-73
2022/07/04 13:16:23;;;;;;;;;;;28.50;99.90;;;28.06;44.03;95781.22;10474916;28;1888;-73
2022/07/04 13:21:26;;;;;;;;;;;28.50;99.90;;;28.81;43.33;95771.25;10472936;28;1972;-72
2022/07/04 13:26:32;;;;;;;;;;;28.80;99.90;;;27.98;43.75;95774.84;10476523;28;2260;-74
2022/07/04 13:31:36;;;;;;;;;;;29.20;99.90;;;28.29;43.58;95763.16;10482874;28;1862;-72
2022/07/04 13:36:39;;;;;;;;;;;29.00;99.90;;;28.51;41.84;95752.25;10472465;28;1799;-74
2022/07/04 13:41:42;;;;;;;;;;;29.10;99.90;;;28.90;42.96;95752.31;10472405;28;1918;-72
2022/07/04 13:46:45;;;;;;;;;;;29.40;99.90;;;29.88;39.17;95749.19;10484296;28;1813;-74
2022/07/04 13:51:48;;;;;;;;;;;30.00;99.90;;;29.26;40.82;95742.09;10479054;28;1758;-74
2022/07/04 13:56:51;;;;;;;;;;;30.10;99.90;;;29.73;40.02;95742.91;10473447;28;1802;-72
2022/07/04 14:01:54;;;;;;;;;;;30.00;99.90;;;29.26;39.92;95731.00;10474521;28;1914;-72
2022/07/04 14:06:57;;;;;;;;;;;30.20;99.90;;;28.78;41.78;95725.03;10478249;28;1832;-72
2022/07/04 14:12:00;;;;;;;;;;;29.70;99.90;;;28.94;41.34;95719.16;10472925;28;1958;-72
2022/07/04 14:17:03;;;;;;;;;;;29.40;99.90;;;29.52;39.78;95720.75;10468000;28;2285;-71
2022/07/04 14:22:28;;;;;;;;;;;29.60;99.90;;;28.81;40.73;95721.47;10472117;28;1926;-72
2022/07/04 14:27:32;;;;;;;;;;;29.60;99.90;;;29.11;39.72;95706.50;10472359;28;1922;-74
2022/07/04 14:32:35;;;;;;;;;;;29.60;99.90;;;29.51;38.89;95708.88;10482618;28;1924;-72
2022/07/04 14:37:39;;;;;;;;;;;29.90;99.90;;;28.62;41.25;95713.53;10472310;28;1885;-74
2022/07/04 14:42:42;;;;;;;;;;;29.60;99.90;;;29.16;40.11;95703.34;10468159;28;1951;-72
2022/07/04 14:47:45;;;;;;;;;;;29.50;99.90;;;27.93;43.05;95711.69;10480720;28;1858;-72
2022/07/04 14:52:49;;;;;;;;;;;29.20;99.90;;;28.05;42.51;95696.72;10480804;28;1816;-73
2022/07/04 14:57:52;;;;;;;;;;;28.70;99.90;;;28.21;42.69;95686.16;10472493;28;2059;-73
2022/07/04 15:02:55;;;;;;;;;;;28.60;99.90;;;28.18;41.45;95689.69;10474977;28;1913;-72
2022/07/04 15:07:58;;;;;;;;;;;28.70;99.90;;;28.23;41.62;95681.00;10471331;28;1849;-72
2022/07/04 15:13:01;;;;;;;;;;;29.00;99.90;;;28.15;41.50;95671.13;10467522;28;2094;-72
2022/07/04 15:18:04;;;;;;;;;;;29.10;99.90;;;28.94;40.14;95667.38;10479011;28;1949;-72
2022/07/04 15:28:28;;;;;;;;;;;29.90;99.90;;;29.76;38.15;95658.19;10463961;28;1808;-73
2022/07/04 15:33:32;;;;;;;;;;;30.20;99.90;;;30.12;37.62;95659.66;10462684;28;1800;-71
2022/07/04 15:38:35;;;;;;;;;;;30.40;99.90;;;29.99;37.65;95643.84;10472654;28;1813;-72
2022/07/04 15:43:38;;;;;;;;;;;30.80;99.90;;;29.88;37.32;95643.88;10464761;28;1985;-73
2022/07/04 15:48:41;;;;;;;;;;;30.70;99.90;;;29.95;37.21;95654.16;10467441;28;1844;-73
2022/07/04 15:53:44;;;;;;;;;;;30.50;99.90;;;29.18;39.18;95651.16;10480167;28;1646;-71
2022/07/04 15:58:47;;;;;;;;;;;30.10;99.90;;;28.76;40.30;95658.25;10465139;28;2016;-71
2022/07/04 16:03:50;;;;;;;;;;;29.60;99.90;;;27.97;41.32;95646.97;10480412;28;2027;-72
2022/07/04 16:08:54;;;;;;;;;;;28.90;99.90;;;27.30;43.18;95644.66;10479935;28;1923;-75
2022/07/04 16:13:57;;;;;;;;;;;28.30;99.90;;;27.03;43.62;95643.25;10468512;28;2603;-72
2022/07/04 16:19:03;;;;;;;;;;;27.80;99.90;;;26.64;44.37;95636.22;10472554;28;1993;-72
2022/07/04 16:24:13;;;;;;;;;;;27.40;99.90;;;26.63;44.73;95637.41;10467750;28;1981;-72
2022/07/04 16:29:16;;;;;;;;;;;27.20;99.90;;;26.33;45.35;95643.00;10464614;28;1809;-75
2022/07/04 16:34:18;;;;;;;;;;;27.10;99.90;;;26.22;45.96;95642.13;10478822;28;2024;-73
2022/07/04 16:39:23;;;;;;;;;;;26.90;99.90;;;26.26;45.37;95631.91;10465051;28;2306;-72
2022/07/04 16:44:26;;;;;;;;;;;26.90;99.90;;;26.30;44.96;95635.50;10492703;28;2083;-73
2022/07/04 16:49:29;;;;;;;;;;;27.00;99.90;;;26.28;45.18;95653.59;10474473;28;2063;-73
2022/07/04 16:54:45;;;;;;;;;;;26.90;99.90;;;26.13;45.03;95650.66;10482384;28;2023;-72
2022/07/04 16:59:48;;;;;;;;;;;26.80;99.90;;;26.04;45.68;95638.38;10481068;28;1988;-73
2022/07/04 17:04:51;;;;;;;;;;;26.70;99.90;;;25.93;45.80;95642.94;10478774;28;1785;-71
2022/07/04 17:09:54;;;;;;;;;;;26.50;99.90;;;25.70;46.71;95635.56;10476428;28;1787;-72
2022/07/04 17:14:57;;;;;;;;;;;26.40;99.90;;;25.69;46.66;95650.50;10470646;28;1895;-72
2022/07/04 17:20:00;;;;;;;;;;;26.40;99.90;;;25.50;47.02;95650.63;10492472;28;1973;-72
2022/07/04 17:25:04;;;;;;;;;;;26.30;99.90;;;25.50;46.98;95653.38;10476625;28;1836;-76
2022/07/04 17:30:10;;;;;;;;;;;26.20;99.90;;;25.16;47.94;95656.06;10479712;28;1751;-72
2022/07/04 17:35:14;;;;;;;;;;;26.00;99.90;;;24.97;48.17;95647.88;10477248;28;1923;-74
2022/07/04 17:40:17;;;;;;;;;;;25.80;99.90;;;24.91;49.04;95643.84;10479509;28;1981;-73
2022/07/04 17:45:40;;;;;;;;;;;25.60;99.90;;;24.93;49.05;95647.03;10471599;28;1941;-71
2022/07/04 17:50:43;;;;;;;;;;;25.60;99.90;;;24.77;49.43;95649.91;10473487;28;2047;-73
2022/07/04 17:55:49;;;;;;;;;;;25.50;99.90;;;24.56;50.32;95655.88;10473125;28;2185;-72
2022/07/04 18:00:51;;;;;;;;;;;25.40;99.90;;;24.47;51.35;95652.53;10476733;28;1910;-73
2022/07/04 18:05:55;;;;;;;;;;;25.30;99.90;;;24.43;51.81;95647.00;10474566;28;1896;-73
2022/07/04 18:10:58;;;;;;;;;;;25.20;99.90;;;24.22;52.70;95639.13;10484394;28;1785;-74
2022/07/04 18:16:01;;;;;;;;;;;25.00;99.90;;;24.19;53.09;95639.88;10472611;28;1848;-71
2022/07/04 18:21:04;;;;;;;;;;;25.00;99.90;;;24.09;52.95;95637.69;10468168;28;1981;-73
2022/07/04 18:26:07;;;;;;;;;;;24.80;99.90;;;23.91;53.63;95636.56;10474263;28;1848;-73
2022/07/04 18:31:11;;;;;;;;;;;24.80;99.90;;;23.80;54.14;95649.31;10481709;28;1878;-72
2022/07/04 18:36:14;;;;;;;;;;;24.60;99.90;;;23.71;54.89;95646.75;10477803;28;1920;-71
2022/07/04 18:46:39;;;;;;;;;;;24.40;99.90;;;23.53;56.12;95646.34;10493274;28;1861;-72
2022/07/04 18:51:41;;;;;;;;;;;24.30;99.90;;;23.51;56.90;95662.38;10477150;28;2032;-71
2022/07/04 18:56:45;;;;;;;;;;;24.30;99.90;;;23.47;57.25;95672.47;10472156;28;1915;-72
2022/07/04 19:01:48;;;;;;;;;;;24.30;99.90;;;23.43;57.67;95688.88;10473181;28;1997;-71
2022/07/04 19:06:51;;;;;;;;;;;24.20;99.90;;;23.43;58.17;95690.81;10471803;28;1829;-71
2022/07/04 19:11:54;;;;;;;;;;;24.20;99.90;;;23.53;58.21;95747.84;10467846;28;2100;-70
2022/07/04 19:16:57;;;;;;;;;;;24.30;99.90;;;22.78;63.92;95756.22;10479768;28;1993;-73
2022/07/04 19:22:00;;;;;;;;;;;23.80;99.90;;;20.62;93.35;95791.06;10473178;28;2008;-72
2022/07/04 19:27:04;;;;;;;;;;;;;;;18.59;100.00;95826.69;10467589;28;1884;-73
2022/07/04 19:32:09;;;;;;;;;;;;;;;18.12;100.00;95851.03;10464304;28;2074;-72
2022/07/04 19:37:12;;;;;;;;;;;;;;;18.17;100.00;95867.22;10469083;28;2114;-74
2022/07/04 19:42:18;;;;;;;;;;;;;;;17.91;100.00;95888.16;10471028;28;1910;-72
2022/07/04 19:47:23;;;;;;;;;;;;;;;18.12;100.00;95908.16;10472444;28;1853;-75
2022/07/04 19:52:31;;;;;;;;;;;;;;;18.15;100.00;95921.16;10470771;28;1851;-73
2022/07/04 19:57:34;;;;;;;;;;;;;;;17.91;100.00;95931.66;10471252;28;1853;-74
2022/07/04 20:02:39;;;;;;;;;;;;;;;17.79;100.00;95935.78;10485669;28;1918;-76
2022/07/04 20:07:45;;;;;;;;;;;;;;;17.67;100.00;95946.41;10473030;28;1871;-76
2022/07/04 20:12:49;;;;;;;;;;;;;;;17.65;100.00;95951.38;10479062;28;1794;-76
2022/07/04 20:17:53;;;;;;;;;;;;;;;17.62;100.00;95952.00;10477889;28;1820;-75
2022/07/04 20:22:59;;;;;;;;;;;;;;;17.61;100.00;95949.59;10485999;28;2026;-75
2022/07/04 20:28:03;;;;;;;;;;;;;;;17.65;100.00;95956.81;10480406;28;1786;-74
2022/07/04 20:33:06;;;;;;;;;;;;;;;17.65;100.00;95948.66;10484815;28;2315;-74
2022/07/04 20:38:09;;;;;;;;;;;;;;;17.65;100.00;95947.84;10481834;28;1838;-75
2022/07/04 20:43:15;;;;;;;;;;;;;;;17.68;100.00;95956.19;10485731;28;1898;-75
2022/07/04 20:48:19;;;;;;;;;;;;;;;17.72;100.00;95962.63;10480849;28;1797;-74
2022/07/04 20:53:23;;;;;;;;;;;;;;;17.74;100.00;95960.38;10483912;28;2023;-73
2022/07/04 20:58:26;;;;;;;;;;;;;;;17.74;100.00;95960.38;10483528;28;1848;-75
2022/07/04 21:03:30;;;;;;;;;;;;;;;17.72;100.00;95954.47;10498956;28;1925;-74
2022/07/04 21:08:35;;;;;;;;;;;;;;;17.74;100.00;95956.88;10501807;28;1890;-75
2022/07/04 21:13:38;;;;;;;;;;;;;;;17.76;100.00;95960.88;10496191;28;1739;-75
2022/07/04 21:18:42;;;;;;;;;;;;;;;17.76;100.00;95960.88;10481843;28;1808;-75
2022/07/04 21:23:46;;;;;;;;;;;;;;;17.74;100.00;95963.09;10482620;28;1922;-75
2022/07/04 21:28:49;;;;;;;;;;;;;;;17.67;100.00;95965.44;10483208;28;1804;-75
2022/07/04 21:33:54;;;;;;;;;;;;;;;17.57;100.00;95960.31;10478530;28;1784;-75
2022/07/04 21:38:57;;;;;;;;;;;;;;;17.54;100.00;95971.78;10470183;28;1924;-75
2022/07/04 21:44:01;;;;;;;;;;;;;;;17.54;100.00;95966.34;10478624;28;2255;-74
2022/07/04 21:49:05;;;;;;;;;;;;;;;17.63;100.00;95972.66;10480762;28;1824;-74
2022/07/04 21:54:08;;;;;;;;;;;;;;;17.67;100.00;95980.97;10492761;28;1772;-74
2022/07/04 21:59:11;;;;;;;;;;;;;;;17.68;100.00;95975.19;10476798;28;1868;-75
2022/07/04 22:04:18;;;;;;;;;;;;;;;17.64;100.00;95982.41;10481105;28;1973;-75
2022/07/04 22:09:22;;;;;;;;;;;;;;;17.71;100.00;95980.06;10476477;28;1794;-75
2022/07/04 22:14:25;;;;;;;;;;;;;;;17.76;100.00;95982.66;10480323;28;1853;-75
2022/07/04 22:19:29;;;;;;;;;;;;;;;17.72;100.00;95981.66;10478680;28;1836;-75
2022/07/04 22:24:33;;;;;;;;;;;;;;;17.63;100.00;95982.72;10472794;28;1939;-74
2022/07/04 22:29:37;;;;;;;;;;;;;;;17.62;100.00;95983.81;10474700;28;2017;-74
2022/07/04 22:34:40;;;;;;;;;;;;;;;17.58;100.00;95983.66;10473324;28;1800;-74
2022/07/04 22:39:45;;;;;;;;;;;;;;;17.58;100.00;95983.66;10473138;28;1852;-74
2022/07/04 22:44:48;;;;;;;;;;;;;;;17.57;100.00;95987.50;10473187;28;1898;-74
2022/07/04 22:49:52;;;;;;;;;;;;;;;17.53;100.00;95975.63;10476107;28;1910;-75
2022/07/04 22:54:57;;;;;;;;;;;;;;;17.54;100.00;95982.66;10475384;28;1904;-74
2022/07/04 23:00:01;;;;;;;;;;;;;;;17.56;100.00;95977.72;10473137;28;2022;-74
2022/07/04 23:05:05;;;;;;;;;;;;;;;17.55;100.00;95970.66;10471944;28;1979;-73
2022/07/04 23:10:09;;;;;;;;;;;;;;;17.56;100.00;95962.22;10467623;28;1754;-74
2022/07/04 23:15:13;;;;;;;;;;;;;;;17.49;100.00;95964.56;10467576;28;1867;-75
2022/07/04 23:20:16;;;;;;;;;;;;;;;17.48;100.00;95971.13;10471545;28;1781;-73
2022/07/04 23:25:19;;;;;;;;;;;;;;;17.46;100.00;95959.78;10471054;28;1914;-74
2022/07/04 23:30:23;;;;;;;;;;;;;;;17.34;100.00;95966.91;10472997;28;1896;-74
2022/07/04 23:35:26;;;;;;;;;;;;;;;17.40;100.00;95961.03;10471041;28;1853;-74
2022/07/04 23:40:29;;;;;;;;;;;;;;;17.35;100.00;95961.16;10471133;28;1869;-75
2022/07/04 23:45:33;;;;;;;;;;;;;;;17.34;100.00;95959.53;10469231;28;1984;-75
2022/07/04 23:50:37;;;;;;;;;;;;;;;17.29;100.00;95957.75;10468097;28;1869;-75
2022/07/04 23:55:41;;;;;;;;;;;;;;;17.22;100.00;95946.53;10476612;28;2258;-75
